Time;durP1;ratioP1;P1;durP2;ratioP2;P2;SDS_P1;SDS_P2;PMS_P1;PMS_P2;Temp;Humidity;BMP_temperature;BMP_pressure;BME280_temperature;BME280_humidity;BME280_pressure;Samples;Min_cycle;Max_cycle;Signal;HPM_P1;HPM_P2
2021/05/26 00:01:51;;;;;;;5.60;3.52;;;;;;;14.23;85.17;99513.58;1743881;81;21071;-66
2021/05/26 00:04:21;;;;;;;7.75;3.80;;;;;;;14.21;84.89;99515.08;1748218;81;21072;-67
2021/05/26 00:06:50;;;;;;;5.22;4.10;;;;;;;14.18;84.44;99513.61;1749665;81;21092;-67
2021/05/26 00:09:18;;;;;;;4.22;3.83;;;;;;;14.16;83.89;99513.47;1737020;81;21080;-67
2021/05/26 00:11:45;;;;;;;6.70;4.08;;;;;;;14.13;83.62;99512.48;1733057;81;21110;-66
2021/05/26 00:14:12;;;;;;;5.58;3.55;;;;;;;14.10;83.64;99516.33;1727468;82;21678;-67
2021/05/26 00:16:38;;;;;;;3.80;3.30;;;;;;;14.07;83.62;99516.67;1737220;82;21559;-68
2021/05/26 00:19:07;;;;;;;5.97;3.10;;;;;;;14.07;83.59;99515.34;1713816;82;21055;-67
2021/05/26 00:21:36;;;;;;;8.38;3.42;;;;;;;14.08;83.44;99512.99;1710359;82;21061;-67
2021/05/26 00:24:08;;;;;;;4.35;3.70;;;;;;;14.08;83.25;99510.33;1736683;81;21039;-67
2021/05/26 00:26:34;;;;;;;6.05;3.60;;;;;;;14.07;83.38;99508.69;1744833;81;21050;-67
2021/05/26 00:29:01;;;;;;;6.33;3.62;;;;;;;14.05;83.35;99511.21;1741157;81;21075;-67
2021/05/26 00:31:32;;;;;;;5.85;3.80;;;;;;;14.04;83.18;99515.68;1735004;81;21155;-67
2021/05/26 00:34:01;;;;;;;4.53;3.47;;;;;;;14.02;83.28;99515.03;1742778;81;21129;-66
2021/05/26 00:36:31;;;;;;;3.60;3.30;;;;;;;14.03;83.39;99520.69;1744060;81;21555;-67
2021/05/26 00:39:05;;;;;;;3.85;3.17;;;;;;;14.06;83.35;99508.36;1720207;81;21152;-68
2021/05/26 00:41:33;;;;;;;5.37;3.15;;;;;;;14.06;83.51;99505.70;1749888;81;21103;-68
2021/05/26 00:43:59;;;;;;;4.22;3.00;;;;;;;14.06;83.58;99506.20;1748303;81;21158;-67
2021/05/26 00:46:27;;;;;;;6.05;3.47;;;;;;;14.06;83.81;99507.53;1737029;81;21103;-67
2021/05/26 00:48:54;;;;;;;3.98;3.00;;;;;;;14.06;83.80;99505.70;1741211;81;21114;-67
2021/05/26 00:51:23;;;;;;;5.15;2.70;;;;;;;14.06;83.78;99502.22;1734506;82;21055;-67
2021/05/26 00:53:50;;;;;;;7.87;2.75;;;;;;;14.07;83.87;99504.70;1715466;81;21547;-67
2021/05/26 00:56:19;;;;;;;4.35;2.70;;;;;;;14.11;83.88;99502.53;1744606;81;21036;-67
2021/05/26 00:58:46;;;;;;;3.92;3.00;;;;;;;14.12;83.99;99495.71;1733880;81;21019;-67
2021/05/26 01:01:13;;;;;;;5.62;2.37;;;;;;;14.14;83.91;99499.53;1709549;82;21079;-67
2021/05/26 01:03:41;;;;;;;3.90;2.75;;;;;;;14.14;83.92;99499.53;1728085;82;21051;-67
2021/05/26 01:06:09;;;;;;;3.08;2.20;;;;;;;14.13;84.01;99504.51;1717251;82;21059;-67
2021/05/26 01:08:35;;;;;;;4.25;2.50;;;;;;;14.15;83.93;99498.51;1732496;81;21075;-67
2021/05/26 01:11:05;;;;;;;4.53;2.40;;;;;;;14.17;83.91;99495.98;1748654;81;21060;-67
2021/05/26 01:13:34;;;;;;;2.70;2.50;;;;;;;14.19;83.91;99493.16;1720148;82;21049;-67
2021/05/26 01:16:01;;;;;;;4.83;2.37;;;;;;;14.18;83.94;99488.35;1732065;82;21579;-67
2021/05/26 01:18:34;;;;;;;7.12;2.55;;;;;;;14.16;84.10;99489.03;1733373;81;21058;-67
2021/05/26 01:21:07;;;;;;;2.55;2.35;;;;;;;14.14;84.14;99490.22;1726752;82;21051;-67
2021/05/26 01:23:36;;;;;;;2.62;2.42;;;;;;;14.10;84.34;99489.75;1745737;81;21040;-67
2021/05/26 01:26:06;;;;;;;3.98;2.52;;;;;;;14.07;84.45;99486.61;1748987;81;21183;-67
2021/05/26 01:28:34;;;;;;;2.42;2.15;;;;;;;14.05;84.66;99482.78;1718371;82;21102;-68
2021/05/26 01:31:05;;;;;;;5.47;2.83;;;;;;;14.02;84.96;99477.81;1740646;81;21158;-67
2021/05/26 01:33:32;;;;;;;7.53;2.92;;;;;;;13.98;85.24;99483.16;1743581;81;21055;-66
2021/05/26 01:36:05;;;;;;;3.37;2.87;;;;;;;13.92;85.57;99477.22;1731523;82;21052;-67
2021/05/26 01:38:32;;;;;;;4.10;3.02;;;;;;;13.86;85.78;99474.75;1737098;81;21043;-68
2021/05/26 01:41:04;;;;;;;4.90;2.95;;;;;;;13.81;86.12;99470.97;1739548;81;21070;-67
2021/05/26 01:43:33;;;;;;;4.60;3.12;;;;;;;13.78;86.48;99481.42;1728386;81;21063;-67
2021/05/26 01:46:01;;;;;;;4.22;3.20;;;;;;;13.75;86.71;99478.62;1740631;81;21583;-67
2021/05/26 01:48:32;;;;;;;4.62;3.40;;;;;;;13.73;86.96;99478.48;1738096;82;21062;-67
2021/05/26 01:50:59;;;;;;;6.80;3.12;;;;;;;13.67;87.52;99474.69;1744231;81;21011;-67
2021/05/26 01:53:27;;;;;;;5.72;3.55;;;;;;;13.62;87.87;99473.05;1718274;82;21627;-67
2021/05/26 01:56:00;;;;;;;5.80;3.30;;;;;;;13.56;88.19;99475.07;1736232;82;21083;-67
2021/05/26 01:58:32;;;;;;;4.70;3.15;;;;;;;13.50;88.52;99483.20;1716184;81;21028;-67
2021/05/26 02:01:00;;;;;;;4.58;3.20;;;;;;;13.45;88.88;99482.91;1749233;81;21028;-67
2021/05/26 02:03:31;;;;;;;7.92;3.55;;;;;;;13.44;89.27;99476.44;1744308;81;21079;-67
2021/05/26 02:05:58;;;;;;;5.78;4.00;;;;;;;13.40;89.76;99472.78;1740471;81;21051;-67
2021/05/26 02:08:28;;;;;;;5.60;3.85;;;;;;;13.36;90.20;99471.47;1748752;81;21618;-67
2021/05/26 02:13:40;;;;;;;6.30;4.03;;;;;;;13.30;90.86;99459.36;1705930;82;21059;-67
2021/05/26 02:16:08;;;;;;;4.55;3.70;;;;;;;13.26;91.17;99457.55;1744388;82;21103;-67
2021/05/26 02:18:36;;;;;;;5.08;3.70;;;;;;;13.26;91.59;99454.89;1723785;82;21064;-67
2021/05/26 02:21:06;;;;;;;5.78;4.15;;;;;;;13.26;91.86;99452.71;1745339;81;21095;-67
2021/05/26 02:23:36;;;;;;;5.70;4.03;;;;;;;13.22;92.26;99454.88;1747942;82;21063;-67
2021/05/26 02:26:04;;;;;;;5.00;4.50;;;;;;;13.19;92.47;99447.27;1743517;81;21073;-67
2021/05/26 02:28:35;;;;;;;5.40;3.80;;;;;;;13.18;92.54;99454.39;1700406;82;21613;-67
2021/05/26 02:31:02;;;;;;;10.32;3.45;;;;;;;13.18;92.59;99453.06;1744509;81;21080;-67
2021/05/26 02:33:30;;;;;;;4.00;3.55;;;;;;;13.21;92.53;99461.20;1738820;81;21027;-67
2021/05/26 02:36:00;;;;;;;4.45;3.80;;;;;;;13.20;92.83;99454.22;1744433;81;21115;-67
2021/05/26 02:38:30;;;;;;;4.95;4.05;;;;;;;13.20;93.25;99454.22;1742941;81;21516;-67
2021/05/26 02:40:59;;;;;;;4.08;3.37;;;;;;;13.19;93.55;99466.68;1735083;81;21071;-67
2021/05/26 02:43:27;;;;;;;5.45;3.50;;;;;;;13.19;93.58;99479.95;1722357;81;21581;-68
2021/05/26 02:45:57;;;;;;;7.35;3.25;;;;;;;13.23;93.62;99479.12;1716629;82;21588;-67
2021/05/26 02:48:24;;;;;;;8.65;3.52;;;;;;;13.27;93.38;99471.64;1714412;82;21547;-67
2021/05/26 02:50:55;;;;;;;4.67;3.45;;;;;;;13.31;93.54;99471.66;1723646;81;21057;-67
2021/05/26 02:53:22;;;;;;;5.90;3.50;;;;;;;13.37;93.42;99475.80;1751523;81;21039;-67
2021/05/26 02:55:50;;;;;;;5.40;3.30;;;;;;;13.45;93.21;99473.61;1750049;81;21060;-66
2021/05/26 02:58:35;;;;;;;4.83;3.40;;;;;;;13.53;92.87;99476.22;1746364;81;21131;-67
2021/05/26 03:01:24;;;;;;;5.12;2.92;;;;;;;13.63;92.56;99478.66;1737155;81;21048;-67
2021/05/26 03:03:59;;;;;;;4.08;2.98;;;;;;;13.77;91.99;99484.59;1700406;82;21103;-67
2021/05/26 03:06:31;;;;;;;5.60;3.02;;;;;;;13.93;91.21;99474.87;1701019;81;21104;-66
2021/05/26 03:08:58;;;;;;;5.30;3.30;;;;;;;14.04;90.74;99475.80;1728246;82;21111;-67
2021/05/26 03:11:27;;;;;;;4.00;3.25;;;;;;;14.13;90.12;99477.41;1723838;82;21162;-66
2021/05/26 03:14:04;;;;;;;4.55;3.15;;;;;;;14.24;89.71;99472.70;1730450;82;21593;-67
2021/05/26 03:16:33;;;;;;;5.03;3.02;;;;;;;14.34;89.20;99450.67;1725216;82;21106;-67
2021/05/26 03:19:00;;;;;;;4.90;2.60;;;;;;;14.47;88.37;99444.25;1722507;81;21593;-66
2021/05/26 03:21:31;;;;;;;4.90;2.62;;;;;;;14.63;87.53;99446.49;1745573;81;21047;-66
2021/05/26 03:24:13;;;;;;;5.03;2.67;;;;;;;14.77;86.42;99448.85;1714407;82;21101;-66
2021/05/26 03:26:42;;;;;;;3.95;2.90;;;;;;;14.87;85.36;99451.59;1736926;81;21515;-66
2021/05/26 03:29:09;;;;;;;3.35;3.05;;;;;;;14.96;84.80;99461.63;1733014;82;21528;-67
2021/05/26 03:31:37;;;;;;;5.15;2.67;;;;;;;15.05;84.23;99453.88;1724809;81;21083;-66
2021/05/26 03:34:05;;;;;;;3.45;2.50;;;;;;;15.13;83.71;99453.81;1737588;80;21143;-66
2021/05/26 03:36:32;;;;;;;5.33;2.80;;;;;;;15.23;83.13;99449.54;1724502;81;21218;-67
2021/05/26 03:38:59;;;;;;;3.65;3.15;;;;;;;15.29;83.11;99462.11;1716673;81;21058;-67
2021/05/26 03:41:26;;;;;;;4.00;2.77;;;;;;;15.38;82.70;99470.84;1745269;81;21587;-66
2021/05/26 03:44:00;;;;;;;3.27;2.98;;;;;;;15.48;82.43;99475.89;1725290;82;21097;-67
2021/05/26 03:46:27;;;;;;;6.90;2.50;;;;;;;15.57;81.89;99484.11;1732295;81;21673;-66
2021/05/26 03:48:56;;;;;;;2.98;2.67;;;;;;;15.70;81.24;99491.45;1735324;81;21071;-67
2021/05/26 03:51:23;;;;;;;5.42;2.70;;;;;;;15.83;80.46;99508.16;1753451;81;21127;-67
2021/05/26 03:53:50;;;;;;;3.83;2.65;;;;;;;15.91;79.91;99507.52;1723967;82;21551;-66
2021/05/26 03:56:20;;;;;;;5.05;2.65;;;;;;;16.03;79.19;99513.70;1722644;82;21017;-66
2021/05/26 03:58:56;;;;;;;4.45;2.75;;;;;;;16.13;77.75;99506.77;1741756;81;21047;-67
2021/05/26 04:01:27;;;;;;;4.62;2.80;;;;;;;16.18;77.15;99512.33;1749765;81;21127;-66
2021/05/26 04:03:54;;;;;;;6.58;3.33;;;;;;;16.25;77.10;99514.57;1734638;81;21031;-67
2021/05/26 04:06:21;;;;;;;4.03;2.50;;;;;;;16.33;76.62;99525.14;1724276;81;21095;-66
2021/05/26 04:08:49;;;;;;;2.77;2.40;;;;;;;16.44;76.38;99519.80;1739015;81;21099;-67
2021/05/26 04:11:17;;;;;;;4.87;2.67;;;;;;;16.56;76.18;99530.81;1696562;81;21064;-67
2021/05/26 04:14:04;;;;;;;3.92;2.70;;;;;;;16.67;75.70;99528.45;1732950;81;21051;-66
2021/05/26 04:16:50;;;;;;;3.17;2.60;;;;;;;16.73;75.67;99536.20;1713260;81;21095;-68
2021/05/26 04:19:30;;;;;;;6.67;3.00;;;;;;;16.80;75.70;99538.42;1736237;81;21099;-66
2021/05/26 04:21:59;;;;;;;4.95;3.20;;;;;;;16.86;76.43;99532.86;1746565;81;21053;-66
2021/05/26 04:24:30;;;;;;;6.47;2.90;;;;;;;16.92;76.11;99533.92;1746456;81;21064;-67
2021/05/26 04:26:57;;;;;;;7.15;3.00;;;;;;;16.97;75.70;99542.20;1739336;81;21050;-67
2021/05/26 04:29:24;;;;;;;3.62;2.80;;;;;;;17.05;75.61;99536.70;1732359;81;21062;-67
2021/05/26 04:31:56;;;;;;;2.90;2.60;;;;;;;17.12;75.17;99539.44;1729766;82;21083;-67
2021/05/26 04:34:24;;;;;;;3.33;2.55;;;;;;;17.17;74.83;99524.97;1727886;81;21152;-68
2021/05/26 04:36:51;;;;;;;3.95;3.05;;;;;;;17.24;74.44;99526.69;1709679;81;21090;-67
2021/05/26 04:39:17;;;;;;;5.87;3.15;;;;;;;17.27;74.28;99515.59;1738970;81;21084;-67
2021/05/26 04:41:47;;;;;;;6.10;3.20;;;;;;;17.33;74.24;99513.98;1715473;82;21131;-67
2021/05/26 04:44:16;;;;;;;9.13;3.15;;;;;;;17.35;74.05;99516.46;1734644;82;21098;-66
2021/05/26 04:46:43;;;;;;;4.45;2.95;;;;;;;17.41;74.45;99527.70;1726594;82;21578;-66
2021/05/26 04:49:11;;;;;;;6.92;3.27;;;;;;;17.44;74.32;99528.13;1723442;82;21067;-67
2021/05/26 04:51:38;;;;;;;5.40;3.35;;;;;;;17.46;74.39;99526.61;1735306;82;21598;-66
2021/05/26 04:54:06;;;;;;;6.85;4.42;;;;;;;17.50;74.40;99528.37;1724496;82;21043;-67
2021/05/26 04:56:33;;;;;;;5.78;3.98;;;;;;;17.48;74.91;99528.56;1740944;81;21127;-67
2021/05/26 04:58:59;;;;;;;4.33;3.90;;;;;;;17.44;74.86;99538.01;1738344;81;21058;-68
2021/05/26 05:01:29;;;;;;;7.72;3.90;;;;;;;17.38;75.32;99540.14;1722420;81;21075;-68
2021/05/26 05:03:56;;;;;;;5.12;3.12;;;;;;;17.31;75.76;99541.94;1742487;81;21576;-67
2021/05/26 05:06:27;;;;;;;3.25;2.70;;;;;;;17.23;76.56;99533.04;1716400;82;21129;-67
2021/05/26 05:08:53;;;;;;;5.28;3.05;;;;;;;17.20;76.84;99528.59;1747472;81;21079;-66
2021/05/26 05:11:20;;;;;;;5.30;3.50;;;;;;;17.19;76.67;99530.45;1737501;81;21590;-67
2021/05/26 05:13:47;;;;;;;3.42;2.85;;;;;;;17.21;77.00;99536.94;1740540;81;21063;-67
2021/05/26 05:16:14;;;;;;;3.77;3.02;;;;;;;17.22;77.28;99540.73;1735527;82;21582;-67
2021/05/26 05:18:41;;;;;;;5.35;3.30;;;;;;;17.23;77.36;99537.05;1750662;81;21099;-67
2021/05/26 05:21:08;;;;;;;4.33;3.12;;;;;;;17.26;77.37;99536.67;1735410;81;21566;-67
2021/05/26 05:23:38;;;;;;;6.83;3.05;;;;;;;17.31;77.30;99536.59;1738910;81;21127;-69
2021/05/26 05:26:08;;;;;;;4.08;3.00;;;;;;;17.35;76.98;99536.51;1742598;81;21155;-68
2021/05/26 05:28:34;;;;;;;6.47;3.50;;;;;;;17.36;77.06;99534.98;1737853;81;21039;-67
2021/05/26 05:31:04;;;;;;;6.00;3.67;;;;;;;17.38;77.24;99532.94;1737746;82;21047;-67
2021/05/26 05:33:31;;;;;;;5.67;3.77;;;;;;;17.46;77.53;99535.95;1741346;81;21146;-66
2021/05/26 05:35:58;;;;;;;7.37;3.58;;;;;;;17.56;77.17;99556.50;1739314;81;21195;-68
2021/05/26 05:38:24;;;;;;;5.00;2.95;;;;;;;17.63;77.01;99554.66;1732462;81;21091;-68
2021/05/26 05:40:52;;;;;;;4.78;3.17;;;;;;;17.73;76.78;99546.80;1726617;82;21071;-67
2021/05/26 05:43:18;;;;;;;6.40;3.60;;;;;;;17.84;76.10;99548.45;1739149;81;21639;-70
2021/05/26 05:45:45;;;;;;;5.12;3.20;;;;;;;17.91;75.73;99548.46;1743305;81;21583;-71
2021/05/26 05:48:15;;;;;;;10.60;3.70;;;;;;;18.11;75.13;99547.73;1734607;81;21123;-69
2021/05/26 05:50:41;;;;;;;5.78;3.35;;;;;;;18.53;72.94;99548.45;1735357;81;21575;-71
2021/05/26 05:53:08;;;;;;;6.17;3.60;;;;;;;19.01;70.92;99552.35;1721228;81;21192;-69
2021/05/26 05:55:34;;;;;;;4.47;3.22;;;;;;;19.42;69.03;99548.61;1746433;81;21030;-69
2021/05/26 05:58:04;;;;;;;8.53;3.50;;;;;;;19.68;67.11;99550.94;1733582;81;21075;-69
2021/05/26 06:00:37;;;;;;;7.12;3.47;;;;;;;19.74;66.34;99561.66;1730206;82;21126;-68
2021/05/26 06:03:00;;;;;;;8.15;3.65;;;;;;;19.76;65.20;99558.24;1748327;81;21182;-71
2021/05/26 06:05:27;;;;;;;5.28;2.80;;;;;;;19.85;64.45;99558.84;1741345;81;21681;-68
2021/05/26 06:07:54;;;;;;;4.58;2.83;;;;;;;20.23;64.11;99557.25;1739523;82;21621;-68
2021/05/26 06:10:22;;;;;;;5.55;3.67;;;;;;;20.79;62.44;99559.20;1684124;83;21095;-68
2021/05/26 06:12:55;;;;;;;3.72;2.75;;;;;;;21.33;60.57;99559.59;1707330;83;21045;-66
2021/05/26 06:15:21;;;;;;;3.52;3.20;;;;;;;21.82;58.35;99555.70;1664394;85;21086;-67
2021/05/26 06:17:50;;;;;;;3.45;2.75;;;;;;;22.17;56.67;99555.08;1732474;81;21106;-69
2021/05/26 06:20:18;;;;;;;5.95;3.00;;;;;;;22.41;55.44;99562.77;1749333;81;21590;-70
2021/05/26 06:22:46;;;;;;;4.62;3.30;;;;;;;22.45;54.82;99557.21;1748553;81;21047;-70
2021/05/26 06:25:15;;;;;;;5.62;2.90;;;;;;;22.38;54.93;99559.98;1730632;81;21044;-69
2021/05/26 06:27:43;;;;;;;4.15;2.85;;;;;;;22.27;55.21;99565.61;1746754;81;21107;-68
2021/05/26 06:30:12;;;;;;;4.83;2.90;;;;;;;22.26;55.33;99567.22;1726084;82;21080;-66
2021/05/26 06:32:39;;;;;;;5.25;2.70;;;;;;;22.29;55.05;99571.63;1749452;81;21048;-68
2021/05/26 06:35:08;;;;;;;4.12;2.58;;;;;;;22.29;55.44;99575.66;1744559;81;21119;-70
2021/05/26 06:37:35;;;;;;;4.60;2.83;;;;;;;22.31;54.95;99576.76;1726663;81;21128;-77
2021/05/26 06:40:05;;;;;;;4.50;2.70;;;;;;;22.29;55.07;99571.63;1700015;82;21136;-71
2021/05/26 06:42:33;;;;;;;3.00;2.75;;;;;;;22.25;54.98;99579.84;1694509;84;21628;-73
2021/05/26 06:45:00;;;;;;;5.97;2.65;;;;;;;22.24;55.24;99582.22;1684576;83;21081;-74
2021/05/26 06:47:27;;;;;;;3.33;2.52;;;;;;;22.24;55.39;99584.91;1683279;84;21061;-70
2021/05/26 06:49:58;;;;;;;4.33;2.45;;;;;;;22.29;54.63;99582.90;1695850;84;21077;-70
2021/05/26 06:52:31;;;;;;;7.08;2.55;;;;;;;22.28;54.31;99583.43;1667006;84;21188;-71
2021/05/26 06:55:00;;;;;;;4.87;2.92;;;;;;;22.19;54.21;99579.91;1694323;82;21118;-71
2021/05/26 06:57:27;;;;;;;3.77;2.42;;;;;;;22.15;54.01;99581.41;1685122;82;21745;-72
2021/05/26 06:59:57;;;;;;;5.80;2.87;;;;;;;22.14;54.34;99580.56;1660867;84;21102;-72
2021/05/26 07:02:24;;;;;;;4.30;2.80;;;;;;;22.18;54.32;99579.09;1684353;84;21463;-74
2021/05/26 07:04:51;;;;;;;4.20;3.00;;;;;;;22.26;53.90;99571.25;1680171;84;21111;-76
2021/05/26 07:07:20;;;;;;;5.95;2.85;;;;;;;22.39;54.15;99579.16;1648450;85;21109;-69
2021/05/26 07:09:47;;;;;;;5.17;2.50;;;;;;;22.61;53.73;99578.62;1692973;83;21167;-69
2021/05/26 07:12:14;;;;;;;5.20;2.95;;;;;;;22.84;53.01;99584.63;1696470;82;21084;-69
2021/05/26 07:14:46;;;;;;;6.62;2.70;;;;;;;23.02;51.74;99596.69;1755567;81;21681;-69
2021/05/26 07:17:13;;;;;;;2.60;2.40;;;;;;;23.12;50.79;99596.14;1729954;80;21563;-70
2021/05/26 07:19:44;;;;;;;3.40;2.30;;;;;;;23.18;50.65;99598.44;1739513;80;21602;-71
2021/05/26 07:22:10;;;;;;;4.87;2.70;;;;;;;23.20;50.34;99608.46;1737384;81;21540;-71
2021/05/26 07:24:37;;;;;;;5.30;2.60;;;;;;;23.16;50.44;99612.69;1703787;82;21043;-69
2021/05/26 07:27:05;;;;;;;4.78;3.02;;;;;;;23.05;50.51;99620.50;1732318;81;21080;-70
2021/05/26 07:29:32;;;;;;;3.55;2.98;;;;;;;22.89;50.81;99615.73;1713271;82;21148;-69
2021/05/26 07:32:03;;;;;;;5.10;2.77;;;;;;;22.72;51.51;99620.97;1709907;81;21211;-71
2021/05/26 07:34:29;;;;;;;3.30;3.00;;;;;;;22.54;52.13;99612.92;1741274;80;21111;-72
2021/05/26 07:36:59;;;;;;;5.15;2.65;;;;;;;22.43;52.75;99622.09;1726818;80;21032;-68
2021/05/26 07:39:34;;;;;;;4.78;2.92;;;;;;;22.39;53.07;99622.25;1719826;83;21145;-67
2021/05/26 07:41:56;;;;;;;6.58;3.08;;;;;;;22.33;53.51;99623.67;1672589;83;21025;-69
2021/05/26 07:44:25;;;;;;;3.10;2.62;;;;;;;22.24;53.21;99619.92;1661982;84;21078;-68
2021/05/26 07:46:54;;;;;;;6.85;3.30;;;;;;;22.09;53.70;99622.99;1705128;83;21057;-68
2021/05/26 07:49:22;;;;;;;5.55;3.17;;;;;;;21.87;54.44;99620.45;1724439;82;21033;-71
2021/05/26 07:51:53;;;;;;;3.72;2.70;;;;;;;21.73;54.97;99621.09;1716121;83;21093;-70
2021/05/26 07:54:23;;;;;;;6.62;3.30;;;;;;;21.67;55.52;99620.11;1721501;83;21144;-68
2021/05/26 07:56:51;;;;;;;4.33;3.40;;;;;;;21.64;55.77;99619.23;1731503;81;21040;-67
2021/05/26 07:59:18;;;;;;;5.40;3.75;;;;;;;21.65;56.39;99618.70;1694199;81;21096;-70
2021/05/26 08:01:45;;;;;;;5.30;3.58;;;;;;;21.63;56.42;99627.52;1730897;80;21628;-69
2021/05/26 08:04:15;;;;;;;3.83;3.10;;;;;;;21.61;56.17;99630.95;1687440;85;21657;-69
2021/05/26 08:06:41;;;;;;;5.97;3.42;;;;;;;21.57;56.16;99636.48;1678394;83;21040;-69
2021/05/26 08:09:08;;;;;;;5.10;3.40;;;;;;;21.46;56.27;99637.49;1699973;83;21083;-68
2021/05/26 08:11:36;;;;;;;4.65;3.40;;;;;;;21.29;56.47;99638.54;1676512;85;22356;-71
2021/05/26 08:14:04;;;;;;;7.30;3.47;;;;;;;21.12;57.03;99638.25;1718159;81;21614;-70
2021/05/26 08:16:34;;;;;;;6.62;3.20;;;;;;;21.03;57.94;99639.56;1687104;82;21111;-69
2021/05/26 08:19:04;;;;;;;7.75;3.80;;;;;;;20.94;58.05;99643.55;1679143;84;21173;-66
2021/05/26 08:21:31;;;;;;;5.28;3.75;;;;;;;20.78;58.32;99644.90;1673415;83;21115;-67
2021/05/26 08:23:57;;;;;;;6.22;3.40;;;;;;;20.67;59.27;99643.72;1687631;83;21169;-66
2021/05/26 08:26:26;;;;;;;6.90;3.70;;;;;;;20.47;60.19;99641.61;1686406;84;21099;-65
2021/05/26 08:28:53;;;;;;;7.03;3.58;;;;;;;20.28;60.48;99652.22;1704802;82;21104;-67
2021/05/26 08:31:22;;;;;;;6.03;4.05;;;;;;;20.16;60.98;99652.55;1704649;82;21108;-69
2021/05/26 08:33:49;;;;;;;6.33;3.83;;;;;;;20.07;61.36;99645.77;1704449;82;21095;-69
2021/05/26 08:36:16;;;;;;;8.73;3.80;;;;;;;19.99;61.84;99640.12;1694086;83;21048;-69
2021/05/26 08:38:45;;;;;;;4.35;3.60;;;;;;;19.97;62.12;99634.14;1722033;82;21040;-70
2021/05/26 08:41:11;;;;;;;8.73;3.58;;;;;;;20.02;62.69;99629.50;1705939;82;21611;-70
2021/05/26 08:43:41;;;;;;;4.08;3.62;;;;;;;20.04;62.87;99626.08;1678234;83;21103;-73
2021/05/26 08:46:09;;;;;;;4.30;3.35;;;;;;;20.05;63.04;99627.71;1666188;85;21064;-74
2021/05/26 08:48:38;;;;;;;6.65;3.95;;;;;;;20.04;63.41;99630.92;1646056;86;21148;-71
2021/05/26 08:51:10;;;;;;;5.00;3.25;;;;;;;20.04;63.50;99636.30;1707727;83;21064;-72
2021/05/26 08:53:39;;;;;;;5.97;3.92;;;;;;;20.07;63.56;99639.06;1692173;83;21075;-68
2021/05/26 08:56:05;;;;;;;6.97;4.03;;;;;;;20.05;63.72;99646.00;1707115;82;21108;-67
2021/05/26 08:58:41;;;;;;;7.08;3.67;;;;;;;19.98;63.81;99641.17;1727842;80;21146;-67
2021/05/26 09:01:07;;;;;;;7.53;3.87;;;;;;;19.92;63.92;99648.73;1724054;82;21092;-67
2021/05/26 09:03:37;;;;;;;6.85;4.10;;;;;;;19.89;64.32;99647.80;1723604;81;21092;-73
2021/05/26 09:06:13;;;;;;;6.47;4.12;;;;;;;19.90;64.35;99646.25;1691552;82;21215;-72
2021/05/26 09:08:52;;;;;;;8.30;4.50;;;;;;;19.92;64.24;99649.55;1702698;82;21107;-76
2021/05/26 09:11:35;;;;;;;7.35;4.42;;;;;;;19.90;64.67;99647.59;1745093;80;21088;-75
2021/05/26 09:14:11;;;;;;;6.37;3.87;;;;;;;19.95;65.04;99650.44;1739478;81;21096;-74
2021/05/26 09:16:38;;;;;;;8.78;4.17;;;;;;;19.95;65.04;99650.44;1674373;83;21069;-71
2021/05/26 09:19:09;;;;;;;6.80;4.12;;;;;;;20.01;65.02;99646.62;1649803;85;21103;-72
2021/05/26 09:21:52;;;;;;;6.75;3.90;;;;;;;20.04;65.07;99648.37;1644847;85;21093;-74
2021/05/26 09:24:25;;;;;;;9.88;3.90;;;;;;;20.09;65.04;99646.41;1679241;83;21635;-73
2021/05/26 09:27:01;;;;;;;7.78;3.55;;;;;;;20.09;65.03;99645.07;1655894;84;21103;-72
2021/05/26 09:29:40;;;;;;;9.50;4.08;;;;;;;20.07;65.89;99644.42;1697998;82;21672;-71
2021/05/26 09:32:26;;;;;;;4.87;3.77;;;;;;;20.07;65.89;99644.42;1694058;82;21093;-79
2021/05/26 09:34:58;;;;;;;7.72;4.08;;;;;;;20.01;66.38;99640.73;1702729;82;21282;-74
2021/05/26 09:37:29;;;;;;;7.22;4.03;;;;;;;19.93;66.22;99644.47;1707421;82;21120;-73
2021/05/26 09:40:07;;;;;;;5.67;3.95;;;;;;;19.69;67.53;99645.92;1683242;83;21198;-79
2021/05/26 09:42:39;;;;;;;8.85;4.30;;;;;;;19.69;67.53;99645.92;1668596;83;21137;-84
2021/05/26 09:45:11;;;;;;;5.97;4.17;;;;;;;19.56;68.87;99648.13;1644386;83;21105;-73
2021/05/26 09:47:46;;;;;;;6.85;3.90;;;;;;;19.56;68.87;99648.13;1672031;85;21057;-76
2021/05/26 09:50:36;;;;;;;8.13;4.05;;;;;;;19.61;69.68;99651.52;1718957;81;21622;-72
2021/05/26 09:53:12;;;;;;;8.60;4.62;;;;;;;19.66;70.35;99653.59;1729494;81;21729;-74
2021/05/26 09:55:47;;;;;;;5.92;4.10;;;;;;;19.65;70.17;99656.77;1706824;83;21571;-75
2021/05/26 09:58:16;;;;;;;7.20;4.58;;;;;;;19.66;70.33;99656.27;1704901;81;21094;-73
2021/05/26 10:00:47;;;;;;;7.00;4.87;;;;;;;19.69;70.24;99666.03;1696569;83;21343;-74
2021/05/26 10:03:17;;;;;;;7.47;5.20;;;;;;;19.72;69.93;99664.81;1712313;83;21068;-75
2021/05/26 10:05:46;;;;;;;6.03;5.28;;;;;;;19.70;69.31;99669.57;1704017;82;21658;-71
2021/05/26 10:08:31;;;;;;;5.85;4.62;;;;;;;19.65;69.65;99677.41;1724931;83;21099;-68
2021/05/26 10:11:17;;;;;;;6.97;5.22;;;;;;;19.54;70.77;99674.30;1707484;82;21613;-71
2021/05/26 10:13:47;;;;;;;7.47;5.37;;;;;;;19.47;70.61;99678.86;1683147;83;21044;-70
2021/05/26 10:16:17;;;;;;;7.08;4.95;;;;;;;19.43;70.69;99680.28;1719216;81;21086;-69
2021/05/26 10:18:49;;;;;;;9.28;5.17;;;;;;;19.42;70.79;99678.65;1705764;81;21102;-68
2021/05/26 10:21:23;;;;;;;7.90;4.58;;;;;;;19.45;70.98;99677.40;1702296;83;21086;-69
2021/05/26 10:23:56;;;;;;;9.05;5.58;;;;;;;19.45;71.15;99678.25;1685219;83;21150;-69
2021/05/26 10:26:55;;;;;;;8.73;5.25;;;;;;;19.44;71.89;99677.11;1679858;84;21160;-69
2021/05/26 10:29:33;;;;;;;7.45;4.70;;;;;;;19.40;72.72;99684.21;1671739;84;21084;-69
2021/05/26 10:32:12;;;;;;;8.03;5.05;;;;;;;19.35;73.35;99677.81;1690095;82;21089;-70
2021/05/26 10:34:51;;;;;;;11.65;5.37;;;;;;;19.32;74.57;99677.72;1722075;81;21143;-71
2021/05/26 10:37:37;;;;;;;8.00;5.60;;;;;;;19.33;75.15;99676.67;1692871;81;21071;-67
2021/05/26 10:40:30;;;;;;;8.13;5.30;;;;;;;19.33;76.87;99675.86;1690803;81;21087;-67
2021/05/26 10:43:22;;;;;;;8.10;5.47;;;;;;;19.28;78.04;99673.77;1630199;87;21110;-67
2021/05/26 10:45:53;;;;;;;10.85;5.70;;;;;;;19.25;78.53;99674.73;1674432;84;21185;-70
2021/05/26 10:48:44;;;;;;;10.98;5.45;;;;;;;19.17;79.20;99672.55;1707345;83;21064;-70
2021/05/26 10:51:11;;;;;;;8.45;4.97;;;;;;;19.09;79.68;99677.27;1705403;82;21043;-70
2021/05/26 10:53:43;;;;;;;6.55;5.42;;;;;;;19.07;80.97;99680.15;1697898;84;21054;-68
2021/05/26 10:56:36;;;;;;;6.50;5.08;;;;;;;19.08;81.49;99679.13;1684419;82;21092;-71
2021/05/26 10:59:18;;;;;;;8.75;5.20;;;;;;;19.00;81.51;99681.98;1664080;84;21104;-71
2021/05/26 11:02:11;;;;;;;6.33;5.30;;;;;;;18.93;81.94;99681.17;1678449;84;21571;-69
2021/05/26 11:04:42;;;;;;;8.88;6.65;;;;;;;18.88;82.36;99674.25;1651835;86;29076;-69
2021/05/26 11:07:20;;;;;;;11.40;6.55;;;;;;;18.91;82.81;99672.48;1701263;82;21047;-69
2021/05/26 11:10:07;;;;;;;12.15;6.10;;;;;;;18.91;82.40;99669.31;1710232;83;21649;-69
2021/05/26 11:12:59;;;;;;;8.88;5.97;;;;;;;18.87;83.01;99661.38;1715259;83;21063;-67
2021/05/26 11:15:43;;;;;;;10.65;6.22;;;;;;;18.84;83.50;99664.97;1734759;81;21554;-68
2021/05/26 11:18:22;;;;;;;10.53;6.53;;;;;;;18.80;84.06;99661.34;1725306;81;21352;-69
2021/05/26 11:20:45;;;;;;;12.58;6.33;;;;;;;18.74;84.61;99658.11;1686619;84;21033;-69
2021/05/26 11:23:14;;;;;;;11.53;6.37;;;;;;;18.69;85.36;99659.22;1686456;82;21091;-70
2021/05/26 11:25:56;;;;;;;9.28;6.05;;;;;;;18.65;85.43;99657.98;1673935;84;21650;-69
2021/05/26 11:28:35;;;;;;;12.85;6.42;;;;;;;18.60;85.60;99657.75;1660069;83;21061;-69
2021/05/26 11:31:05;;;;;;;9.65;7.10;;;;;;;18.54;85.93;99652.68;1651665;85;21072;-69
2021/05/26 11:33:34;;;;;;;11.95;6.90;;;;;;;18.51;86.12;99652.25;1613809;86;21141;-70
2021/05/26 11:36:04;;;;;;;11.68;6.40;;;;;;;18.45;86.36;99656.56;1709036;81;21117;-69
2021/05/26 11:38:32;;;;;;;11.45;6.80;;;;;;;18.39;86.45;99654.69;1717636;82;21107;-68
2021/05/26 11:41:01;;;;;;;7.17;5.80;;;;;;;18.35;87.01;99654.27;1714515;82;21641;-68
2021/05/26 11:43:33;;;;;;;6.72;5.65;;;;;;;18.32;86.89;99657.33;1717822;82;21742;-69
2021/05/26 11:46:07;;;;;;;6.40;5.80;;;;;;;18.32;86.61;99648.48;1719878;82;21122;-70
2021/05/26 11:48:34;;;;;;;9.23;6.85;;;;;;;18.28;87.49;99648.05;1650990;84;21102;-67
2021/05/26 11:51:01;;;;;;;9.43;6.20;;;;;;;18.29;89.08;99645.70;1667330;83;21082;-71
2021/05/26 11:53:28;;;;;;;9.98;5.95;;;;;;;18.33;89.13;99638.91;1728614;82;21543;-68